createdAt,value
2023-02-28T00:01:35.639Z,21.00
2023-02-28T00:04:03.815Z,21.00
2023-02-28T00:06:31.612Z,22.50
2023-02-28T00:08:59.352Z,21.00
2023-02-28T00:11:28.475Z,20.50
2023-02-28T00:13:57.382Z,22.00
2023-02-28T00:16:25.260Z,21.00
2023-02-28T00:18:54.814Z,22.33
2023-02-28T00:21:23.621Z,22.50
2023-02-28T00:23:51.452Z,21.50
2023-02-28T00:26:21.963Z,22.50
2023-02-28T00:28:50.084Z,22.00
2023-02-28T00:31:18.770Z,21.50
2023-02-28T00:33:46.642Z,22.50
2023-02-28T00:36:14.425Z,20.50
2023-02-28T00:38:43.042Z,21.00
2023-02-28T00:41:11.465Z,23.00
2023-02-28T00:43:41.246Z,21.00
2023-02-28T00:46:10.412Z,23.00
2023-02-28T00:48:39.276Z,21.50
2023-02-28T00:51:08.810Z,25.00
2023-02-28T00:53:38.298Z,26.00
2023-02-28T00:56:07.572Z,26.00
2023-02-28T00:58:37.170Z,26.33
2023-02-28T01:01:06.955Z,26.33
2023-02-28T01:03:35.784Z,25.50
2023-02-28T01:06:03.647Z,30.00
2023-02-28T01:08:32.645Z,27.00
2023-02-28T01:11:15.390Z,27.33
2023-02-28T01:13:45.814Z,29.50
2023-02-28T01:16:16.637Z,23.00
2023-02-28T01:18:45.892Z,26.00
2023-02-28T01:21:19.747Z,26.00
2023-02-28T01:23:49.640Z,25.00
2023-02-28T01:26:25.001Z,24.67
2023-02-28T01:28:55.128Z,25.00
2023-02-28T01:31:24.210Z,21.50
2023-02-28T01:33:53.268Z,22.50
2023-02-28T01:36:25.623Z,22.00
2023-02-28T01:38:54.359Z,22.00
2023-02-28T01:41:33.311Z,23.00
2023-02-28T01:44:59.946Z,24.50
2023-02-28T01:47:40.000Z,14.33
2023-02-28T01:50:18.023Z,27.00
2023-02-28T01:52:48.850Z,26.00
2023-02-28T01:55:20.595Z,27.50
2023-02-28T01:57:56.610Z,27.50
2023-02-28T02:00:28.499Z,26.00
2023-02-28T02:03:03.212Z,27.00
2023-02-28T02:05:33.281Z,25.33
2023-02-28T02:08:13.499Z,22.50
2023-02-28T02:10:55.113Z,22.00
2023-02-28T02:14:15.505Z,22.00
2023-02-28T02:17:12.825Z,22.50
2023-02-28T02:20:36.066Z,19.00
2023-02-28T02:23:48.866Z,25.75
2023-02-28T02:26:38.677Z,26.00
2023-02-28T02:30:08.506Z,27.33
2023-02-28T02:33:46.409Z,25.00
2023-02-28T02:36:22.473Z,23.50
2023-02-28T02:40:00.943Z,22.50
2023-02-28T02:42:43.895Z,21.00
2023-02-28T02:45:29.384Z,22.00
2023-02-28T02:48:01.489Z,23.00
2023-02-28T02:50:42.734Z,20.00
2023-02-28T02:53:12.828Z,21.50
2023-02-28T02:55:48.345Z,17.00
2023-02-28T02:58:23.635Z,18.00
2023-02-28T03:01:00.420Z,21.00
2023-02-28T03:03:30.969Z,23.00
2023-02-28T03:06:02.557Z,20.00
2023-02-28T03:08:39.166Z,13.00
2023-02-28T03:11:15.973Z,19.00
2023-02-28T03:14:27.366Z,20.00
2023-02-28T03:17:16.236Z,22.00
2023-02-28T03:20:08.147Z,21.00
2023-02-28T03:23:16.372Z,9.00
2023-02-28T03:26:09.225Z,20.00
2023-02-28T03:28:50.826Z,15.00
2023-02-28T03:31:39.128Z,20.00
2023-02-28T03:34:25.828Z,17.00
2023-02-28T03:37:00.786Z,17.00
2023-02-28T03:39:43.379Z,22.00
2023-02-28T03:42:23.324Z,23.00
2023-02-28T03:45:10.377Z,21.00
2023-02-28T03:48:06.741Z,0.00
2023-02-28T03:50:47.060Z,20.00
2023-02-28T03:53:19.372Z,22.00
2023-02-28T03:55:59.552Z,23.00
2023-02-28T03:58:45.340Z,26.67
2023-02-28T04:01:29.894Z,26.67
2023-02-28T04:03:59.665Z,25.00
2023-02-28T04:06:28.442Z,24.00
2023-02-28T04:08:57.096Z,20.50
2023-02-28T04:11:56.742Z,29.00
2023-02-28T04:14:25.866Z,25.50
2023-02-28T04:16:53.868Z,30.50
2023-02-28T04:19:23.507Z,47.33
2023-02-28T04:21:55.083Z,34.00
2023-02-28T04:24:29.101Z,24.50
2023-02-28T04:26:59.498Z,25.00
2023-02-28T04:29:31.472Z,21.50
2023-02-28T04:32:02.998Z,26.00
2023-02-28T04:34:33.917Z,24.00
2023-02-28T04:37:13.418Z,37.00
2023-02-28T04:39:43.949Z,20.00
2023-02-28T04:42:13.259Z,20.00
2023-02-28T04:44:41.110Z,19.00
2023-02-28T04:47:09.832Z,19.00
2023-02-28T04:49:37.585Z,16.00
2023-02-28T04:52:05.604Z,16.00
2023-02-28T04:54:34.301Z,15.67
2023-02-28T04:57:02.673Z,8.50
2023-02-28T04:59:30.438Z,16.50
2023-02-28T05:01:58.208Z,18.00
2023-02-28T05:04:27.008Z,17.67
2023-02-28T05:06:54.809Z,18.00
2023-02-28T05:09:22.563Z,16.00
2023-02-28T05:11:50.302Z,16.50
2023-02-28T05:14:18.066Z,15.00
2023-02-28T05:16:45.868Z,20.00
2023-02-28T05:19:14.536Z,18.33
2023-02-28T05:21:55.114Z,17.00
2023-02-28T05:24:26.012Z,16.50
2023-02-28T05:26:55.897Z,16.00
2023-02-28T05:29:24.769Z,14.50
2023-02-28T05:31:52.795Z,19.00
2023-02-28T05:34:20.665Z,17.00
2023-02-28T05:36:48.513Z,19.00
2023-02-28T05:39:16.416Z,16.50
2023-02-28T05:41:45.149Z,20.00
2023-02-28T05:44:13.586Z,19.00
2023-02-28T05:46:42.357Z,18.33
2023-02-28T05:49:10.165Z,19.00
2023-02-28T05:51:40.953Z,17.00
2023-02-28T05:54:09.921Z,17.50
2023-02-28T05:56:40.215Z,17.00
2023-02-28T05:59:08.590Z,16.50
2023-02-28T06:01:49.139Z,19.00
2023-02-28T06:04:31.616Z,17.50
2023-02-28T06:07:01.052Z,17.00
2023-02-28T06:09:29.189Z,13.00
2023-02-28T06:12:00.836Z,16.00
2023-02-28T06:14:28.638Z,22.50
2023-02-28T06:16:58.981Z,25.33
2023-02-28T06:19:27.647Z,22.00
2023-02-28T06:21:58.000Z,18.00
2023-02-28T06:24:32.345Z,26.33
2023-02-28T06:27:06.108Z,21.00
2023-02-28T06:29:37.021Z,18.50
2023-02-28T06:32:04.951Z,19.50
2023-02-28T06:34:37.646Z,30.00
2023-02-28T06:37:05.542Z,10.50
2023-02-28T06:39:34.375Z,14.50
2023-02-28T06:42:02.116Z,16.00
2023-02-28T06:44:36.497Z,18.00
2023-02-28T06:47:07.198Z,15.00
2023-02-28T06:49:38.013Z,57.67
2023-02-28T06:52:06.902Z,25.00
2023-02-28T06:54:34.659Z,17.50
2023-02-28T06:57:03.335Z,12.67
2023-02-28T06:59:31.127Z,17.00
2023-02-28T07:02:00.198Z,14.50
2023-02-28T07:04:29.575Z,30.00
2023-02-28T07:06:58.400Z,22.50
2023-02-28T07:09:31.115Z,43.33
2023-02-28T07:11:58.912Z,15.00
2023-02-28T07:14:27.122Z,14.00
2023-02-28T07:16:54.804Z,8.00
2023-02-28T07:19:22.599Z,14.50
2023-02-28T07:21:52.207Z,8.80
2023-02-28T07:24:21.903Z,15.00
2023-02-28T07:26:49.617Z,13.50
2023-02-28T07:29:17.400Z,15.00
2023-02-28T07:31:45.228Z,13.00
2023-02-28T07:34:13.313Z,9.50
2023-02-28T07:36:42.037Z,13.67
2023-02-28T07:39:11.335Z,14.00
2023-02-28T07:41:44.397Z,15.00
2023-02-28T07:44:13.220Z,13.00
2023-02-28T07:46:41.100Z,16.50
2023-02-28T07:49:09.832Z,18.00
2023-02-28T07:51:37.750Z,16.00
2023-02-28T07:54:06.732Z,17.00
2023-02-28T07:56:34.642Z,14.00
2023-02-28T07:59:02.793Z,16.00
2023-02-28T08:01:31.785Z,14.00
2023-02-28T08:04:00.631Z,12.00
2023-02-28T08:06:28.531Z,12.00
2023-02-28T08:08:57.726Z,11.67
2023-02-28T08:11:26.413Z,11.33
2023-02-28T08:13:56.890Z,11.33
2023-02-28T08:16:24.691Z,11.00
2023-02-28T08:18:54.312Z,12.00
2023-02-28T08:21:23.352Z,30.00
2023-02-28T08:23:52.789Z,14.00
2023-02-28T08:26:22.553Z,14.33
2023-02-28T08:28:50.864Z,8.50
2023-02-28T08:31:19.862Z,19.00
2023-02-28T08:33:49.760Z,13.00
2023-02-28T08:36:18.867Z,14.00
2023-02-28T08:38:48.537Z,66.33
2023-02-28T08:41:16.346Z,13.00
2023-02-28T08:43:45.435Z,15.33
2023-02-28T08:46:15.463Z,17.00
2023-02-28T08:48:44.966Z,10.00
2023-02-28T08:51:22.559Z,102.00
2023-02-28T08:53:50.565Z,16.00
2023-02-28T08:56:19.671Z,14.67
2023-02-28T08:58:50.411Z,12.00
2023-02-28T09:01:29.547Z,11.00
2023-02-28T09:03:59.194Z,12.50
2023-02-28T09:06:29.934Z,11.00
2023-02-28T09:09:04.280Z,29.67
2023-02-28T09:11:32.153Z,11.50
2023-02-28T09:14:01.728Z,13.33
2023-02-28T09:16:29.612Z,4.00
2023-02-28T09:18:57.507Z,15.50
2023-02-28T09:21:27.934Z,15.67
2023-02-28T09:23:56.816Z,12.33
2023-02-28T09:26:34.929Z,13.33
2023-02-28T09:29:12.348Z,18.50
2023-02-28T09:31:41.240Z,11.33
2023-02-28T09:34:09.202Z,13.00
2023-02-28T09:36:45.502Z,11.67
2023-02-28T09:39:16.727Z,16.50
2023-02-28T09:41:52.499Z,16.50
2023-02-28T09:44:46.007Z,12.00
2023-02-28T09:47:49.098Z,12.33
2023-02-28T09:50:37.202Z,13.00
2023-02-28T09:53:28.138Z,43.67
2023-02-28T09:56:02.937Z,21.00
2023-02-28T09:58:55.185Z,19.33
2023-02-28T10:01:52.478Z,12.67
2023-02-28T10:04:52.858Z,16.00
2023-02-28T10:08:36.840Z,25.00
2023-02-28T10:11:16.258Z,8.00
2023-02-28T10:14:13.386Z,12.50
2023-02-28T10:16:58.215Z,16.50
2023-02-28T10:19:52.755Z,8.00
2023-02-28T10:22:46.323Z,14.00
2023-02-28T10:25:28.449Z,13.00
2023-02-28T10:28:14.194Z,14.00
2023-02-28T10:30:51.961Z,7.00
2023-02-28T10:33:35.392Z,10.33
2023-02-28T10:36:10.854Z,14.00
2023-02-28T10:38:41.699Z,13.67
2023-02-28T10:41:35.862Z,6.40
2023-02-28T10:44:23.478Z,12.00
2023-02-28T10:46:53.156Z,19.67
2023-02-28T10:49:30.244Z,10.00
2023-02-28T10:52:02.459Z,13.00
2023-02-28T10:54:36.505Z,9.50
2023-02-28T10:57:26.338Z,13.00
2023-02-28T11:00:20.012Z,8.80
2023-02-28T11:02:47.859Z,14.00
2023-02-28T11:05:31.601Z,14.33
2023-02-28T11:08:17.680Z,15.00
2023-02-28T11:11:02.146Z,20.00
2023-02-28T11:13:36.930Z,14.67
2023-02-28T11:16:13.151Z,16.00
2023-02-28T11:18:56.928Z,15.00
2023-02-28T11:21:41.431Z,13.00
2023-02-28T11:24:31.527Z,4.00
2023-02-28T11:26:59.558Z,14.00
2023-02-28T11:29:33.666Z,12.33
2023-02-28T11:32:23.456Z,13.33
2023-02-28T11:35:37.567Z,12.50
2023-02-28T11:38:14.029Z,12.67
2023-02-28T11:41:08.918Z,13.33
2023-02-28T11:44:05.299Z,13.00
2023-02-28T11:46:51.412Z,13.00
2023-02-28T11:50:04.181Z,12.50
2023-02-28T11:53:12.238Z,10.00
2023-02-28T11:56:24.736Z,3.25
2023-02-28T11:59:39.768Z,9.50
2023-02-28T12:02:20.065Z,10.67
2023-02-28T12:05:32.414Z,16.00
2023-02-28T12:08:46.618Z,11.33
2023-02-28T12:12:20.515Z,8.00
2023-02-28T12:15:26.368Z,12.00
2023-02-28T12:18:19.809Z,13.67
2023-02-28T12:21:03.113Z,11.00
2023-02-28T12:24:25.645Z,13.00
2023-02-28T12:26:56.865Z,10.67
2023-02-28T12:29:41.635Z,10.00
2023-02-28T12:32:54.448Z,14.00
2023-02-28T12:35:36.409Z,14.00
2023-02-28T12:38:45.762Z,32.75
2023-02-28T12:41:28.327Z,15.50
2023-02-28T12:44:15.634Z,11.00
2023-02-28T12:46:53.295Z,9.33
2023-02-28T12:49:50.971Z,11.00
2023-02-28T12:52:40.560Z,11.00
2023-02-28T12:55:42.323Z,7.00
2023-02-28T12:58:29.123Z,14.67
2023-02-28T13:01:44.781Z,13.50
2023-02-28T13:04:34.615Z,15.00
2023-02-28T13:07:26.698Z,13.00
2023-02-28T13:10:01.147Z,15.00
2023-02-28T13:12:30.499Z,16.00
2023-02-28T13:15:13.610Z,13.00
2023-02-28T13:17:42.860Z,13.33
2023-02-28T13:20:27.646Z,27.00
2023-02-28T13:22:58.427Z,16.00
2023-02-28T13:25:48.201Z,22.00
2023-02-28T13:28:54.314Z,24.33
2023-02-28T13:31:22.146Z,14.00
2023-02-28T13:34:00.521Z,14.50
2023-02-28T13:36:32.805Z,4.00
2023-02-28T13:39:37.868Z,7.00
2023-02-28T13:42:46.211Z,13.00
2023-02-28T13:45:13.871Z,15.50
2023-02-28T13:47:56.551Z,11.00
2023-02-28T13:50:39.976Z,14.00
2023-02-28T13:53:16.926Z,16.00
2023-02-28T13:56:08.123Z,10.00
2023-02-28T13:59:26.108Z,3.20
2023-02-28T14:02:21.370Z,13.00
2023-02-28T14:08:29.534Z,10.00
2023-02-28T14:11:24.347Z,9.00
2023-02-28T14:13:53.046Z,16.50
2023-02-28T14:16:30.702Z,22.00
2023-02-28T14:19:10.659Z,15.00
2023-02-28T14:21:59.413Z,10.20
2023-02-28T14:25:12.099Z,13.00
2023-02-28T14:28:43.297Z,4.00
2023-02-28T14:31:26.718Z,20.00
2023-02-28T14:34:44.476Z,11.50
2023-02-28T14:37:21.884Z,13.00
2023-02-28T14:39:50.818Z,11.67
2023-02-28T14:42:39.077Z,11.00
2023-02-28T14:45:19.422Z,14.00
2023-02-28T14:47:47.762Z,5.00
2023-02-28T14:50:27.851Z,12.00
2023-02-28T14:52:56.842Z,13.50
2023-02-28T14:55:37.257Z,12.00
2023-02-28T14:58:19.051Z,12.00
2023-02-28T15:00:54.862Z,10.00
2023-02-28T15:03:39.723Z,11.50
2023-02-28T15:06:19.130Z,9.80
2023-02-28T15:08:47.371Z,12.00
2023-02-28T15:11:22.337Z,0.00
2023-02-28T15:13:56.557Z,13.00
2023-02-28T15:16:42.566Z,8.00
2023-02-28T15:19:32.591Z,9.00
2023-02-28T15:22:13.529Z,15.33
2023-02-28T15:24:54.575Z,12.33
2023-02-28T15:27:33.894Z,14.00
2023-02-28T15:30:35.342Z,11.00
2023-02-28T15:33:17.976Z,13.00
2023-02-28T15:35:47.024Z,6.75
2023-02-28T15:38:28.037Z,13.33
2023-02-28T15:40:59.665Z,9.50
2023-02-28T15:43:40.436Z,10.33
2023-02-28T15:46:16.252Z,9.67
2023-02-28T15:48:48.684Z,28.00
2023-02-28T15:51:38.523Z,17.00
2023-02-28T15:54:25.625Z,29.33
2023-02-28T15:57:02.298Z,33.00
2023-02-28T15:59:33.132Z,33.67
2023-02-28T16:02:11.840Z,35.33
2023-02-28T16:05:07.250Z,33.67
2023-02-28T16:07:44.556Z,20.00
2023-02-28T16:10:17.678Z,28.00
2023-02-28T16:12:47.468Z,38.00
2023-02-28T16:15:27.979Z,42.00
2023-02-28T16:17:59.643Z,32.00
2023-02-28T16:20:32.262Z,37.00
2023-02-28T16:23:02.638Z,27.50
2023-02-28T16:25:44.926Z,26.00
2023-02-28T16:28:37.893Z,28.50
2023-02-28T16:31:09.179Z,26.33
2023-02-28T16:33:38.676Z,26.00
2023-02-28T16:36:13.755Z,22.33
2023-02-28T16:38:42.488Z,25.00
2023-02-28T16:41:28.417Z,20.33
2023-02-28T16:44:01.440Z,28.50
2023-02-28T16:46:36.509Z,29.00
2023-02-28T16:49:06.401Z,30.00
2023-02-28T16:51:35.964Z,25.00
2023-02-28T16:54:05.984Z,23.33
2023-02-28T16:56:36.431Z,31.00
2023-02-28T16:59:05.110Z,30.50
2023-02-28T17:01:34.523Z,28.00
2023-02-28T17:04:03.583Z,28.50
2023-02-28T17:06:32.819Z,24.50
2023-02-28T17:09:00.853Z,26.00
2023-02-28T17:11:30.777Z,26.00
2023-02-28T17:13:59.628Z,25.00
2023-02-28T17:16:35.981Z,26.00
2023-02-28T17:19:10.295Z,26.00
2023-02-28T17:21:42.744Z,24.67
2023-02-28T17:24:22.118Z,31.00
2023-02-28T17:27:02.506Z,25.67
2023-02-28T17:29:32.046Z,26.00
2023-02-28T17:32:03.169Z,26.50
2023-02-28T17:34:38.362Z,27.00
2023-02-28T17:37:09.994Z,35.67
2023-02-28T17:39:38.716Z,34.50
2023-02-28T17:42:09.132Z,36.00
2023-02-28T17:44:38.886Z,38.33
2023-02-28T17:47:11.024Z,37.00
2023-02-28T17:49:40.584Z,38.67
2023-02-28T17:52:11.391Z,39.00
2023-02-28T17:54:40.340Z,37.00
2023-02-28T17:57:17.485Z,40.00
2023-02-28T17:59:47.416Z,39.33
2023-02-28T18:02:18.024Z,33.67
2023-02-28T18:04:47.488Z,29.67
2023-02-28T18:07:15.284Z,28.00
2023-02-28T18:09:44.773Z,32.33
2023-02-28T18:12:14.262Z,24.67
2023-02-28T18:14:43.704Z,27.00
2023-02-28T18:17:13.967Z,25.00
2023-02-28T18:19:43.687Z,26.00
2023-02-28T18:22:12.437Z,27.00
2023-02-28T18:24:41.190Z,26.33
2023-02-28T18:27:11.780Z,26.00
2023-02-28T18:29:41.796Z,19.00
2023-02-28T18:32:10.627Z,26.00
2023-02-28T18:34:40.170Z,32.00
2023-02-28T18:37:11.734Z,31.00
2023-02-28T18:39:40.719Z,28.00
2023-02-28T18:42:09.095Z,27.00
2023-02-28T18:44:39.100Z,28.50
2023-02-28T18:47:09.021Z,28.00
2023-02-28T18:49:38.111Z,29.00
2023-02-28T18:52:06.851Z,26.00
2023-02-28T18:54:36.647Z,27.00
2023-02-28T18:57:05.987Z,28.50
2023-02-28T18:59:34.690Z,30.00
2023-02-28T19:02:03.396Z,31.50
2023-02-28T19:04:33.417Z,31.00
2023-02-28T19:07:03.022Z,28.50
2023-02-28T19:09:32.465Z,28.67
2023-02-28T19:12:01.945Z,31.00
2023-02-28T19:14:32.305Z,29.67
2023-02-28T19:17:01.004Z,33.00
2023-02-28T19:19:30.969Z,34.67
2023-02-28T19:22:00.526Z,37.00
2023-02-28T19:24:30.092Z,38.67
2023-02-28T19:26:59.792Z,44.00
2023-02-28T19:29:29.282Z,35.67
2023-02-28T19:31:58.944Z,28.33
2023-02-28T19:34:28.586Z,33.00
2023-02-28T19:36:58.103Z,30.00
2023-02-28T19:39:26.848Z,30.00
2023-02-28T19:41:55.562Z,31.00
2023-02-28T19:44:25.201Z,34.67
2023-02-28T19:46:54.672Z,31.00
2023-02-28T19:49:25.973Z,32.00
2023-02-28T19:51:55.679Z,29.00
2023-02-28T19:54:26.666Z,26.33
2023-02-28T19:56:57.757Z,28.00
2023-02-28T19:59:38.325Z,25.00
2023-02-28T20:02:20.486Z,22.67
2023-02-28T20:04:58.713Z,20.00
2023-02-28T20:07:30.331Z,19.00
2023-02-28T20:10:00.939Z,24.67
2023-02-28T20:12:30.461Z,24.00
2023-02-28T20:15:00.007Z,28.50
2023-02-28T20:17:30.675Z,29.50
2023-02-28T20:19:59.378Z,33.50
2023-02-28T20:22:28.893Z,33.33
2023-02-28T20:24:58.391Z,32.33
2023-02-28T20:27:28.023Z,33.67
2023-02-28T20:29:57.461Z,35.00
2023-02-28T20:32:26.612Z,35.00
2023-02-28T20:34:55.322Z,35.50
2023-02-28T20:37:25.132Z,40.00
2023-02-28T20:39:54.693Z,40.67
2023-02-28T20:42:22.575Z,62.00
2023-02-28T20:44:53.008Z,59.00
2023-02-28T20:47:22.593Z,46.00
2023-02-28T20:49:52.181Z,39.67
2023-02-28T20:52:21.809Z,37.67
2023-02-28T20:54:51.360Z,41.33
2023-02-28T20:57:20.836Z,37.33
2023-02-28T20:59:50.356Z,36.67
2023-02-28T21:02:21.458Z,39.33
2023-02-28T21:04:51.025Z,37.67
2023-02-28T21:07:20.531Z,37.00
2023-02-28T21:09:50.110Z,40.33
2023-02-28T21:12:19.709Z,41.00
2023-02-28T21:14:49.313Z,35.00
2023-02-28T21:17:17.064Z,26.00
2023-02-28T21:19:47.174Z,42.67
2023-02-28T21:22:16.910Z,42.67
2023-02-28T21:24:46.491Z,40.33
2023-02-28T21:27:16.574Z,34.33
2023-02-28T21:29:46.079Z,36.33
2023-02-28T21:32:15.789Z,33.33
2023-02-28T21:34:44.562Z,32.50
2023-02-28T21:37:13.216Z,31.00
2023-02-28T21:39:42.680Z,28.67
2023-02-28T21:42:13.157Z,29.00
2023-02-28T21:44:41.952Z,28.00
2023-02-28T21:47:10.663Z,29.00
2023-02-28T21:49:40.134Z,28.33
2023-02-28T21:52:08.828Z,31.50
2023-02-28T21:54:38.370Z,32.00
2023-02-28T21:57:07.965Z,34.00
2023-02-28T21:59:37.690Z,32.00
2023-02-28T22:02:10.824Z,33.67
2023-02-28T22:04:40.388Z,32.00
2023-02-28T22:07:09.129Z,29.00
2023-02-28T22:09:38.671Z,31.00
2023-02-28T22:12:08.662Z,28.00
2023-02-28T22:14:41.830Z,30.67
2023-02-28T22:17:10.569Z,30.50
2023-02-28T22:19:39.415Z,32.50
2023-02-28T22:22:09.008Z,34.33
2023-02-28T22:24:38.608Z,32.67
2023-02-28T22:27:08.230Z,37.33
2023-02-28T22:29:37.756Z,36.00
2023-02-28T22:32:11.186Z,30.67
2023-02-28T22:34:41.138Z,34.00
2023-02-28T22:37:09.852Z,34.00
2023-02-28T22:39:39.492Z,31.00
2023-02-28T22:42:09.879Z,32.00
2023-02-28T22:44:38.535Z,31.00
2023-02-28T22:47:08.276Z,33.33
2023-02-28T22:49:37.929Z,34.00
2023-02-28T22:52:07.453Z,35.00
2023-02-28T22:54:36.970Z,33.33
2023-02-28T22:57:06.412Z,33.00
2023-02-28T22:59:35.920Z,30.67
2023-02-28T23:02:04.606Z,31.50
2023-02-28T23:04:33.389Z,28.00
2023-02-28T23:07:02.912Z,32.00
2023-02-28T23:09:31.624Z,31.00
2023-02-28T23:12:00.317Z,30.50
2023-02-28T23:14:29.025Z,23.50
2023-02-28T23:16:59.030Z,30.33
2023-02-28T23:19:31.163Z,33.33
2023-02-28T23:22:02.987Z,32.67
2023-02-28T23:24:34.967Z,31.33
2023-02-28T23:27:07.190Z,32.00
2023-02-28T23:29:37.417Z,30.67
2023-02-28T23:32:07.210Z,33.33
2023-02-28T23:34:36.816Z,31.33
2023-02-28T23:37:06.568Z,32.50
2023-02-28T23:39:36.041Z,33.33
2023-02-28T23:42:05.543Z,34.00
2023-02-28T23:44:35.314Z,32.67
2023-02-28T23:47:04.883Z,32.33
2023-02-28T23:49:33.653Z,31.00
2023-02-28T23:52:02.363Z,34.00
2023-02-28T23:54:31.244Z,38.50
2023-02-28T23:57:00.747Z,35.00
2023-02-28T23:59:30.254Z,35.00
